Putnam, TX (76469)

3:07 PM CDT on May 27, 2015 (GMT -0500)
Putnam | | Change Station
CLOSE
Current Station
Personal Weather Station
Location: Cisco, TX
Elevation: 1611 ft
Nearby Weather Stations

Elev 1611 ft 32.44 °N, 99.17 °W | Updated 9 seconds ago

Mostly Cloudy
Mostly Cloudy
87.1 °F
Feels Like 95 °F
N
7.4
Wind Variable Wind from SE
Gusts 12.0 mph

Today
High -- | Low -- °F
--% Chance of Precip.
Yesterday
High -- | Low -- °F
Precip. -- in
6:32 AM 8:35 PM
Waxing Gibbous, 69% visible
Pressure 29.96 in
Visibility 10.0 miles
Clouds Few 4400 ft
Heat Index 95 °F
Dew Point 74 °F
Humidity 65%
Rainfall 0.00 in
Snow Depth Not available.
UV 11 out of 12
Pollen 4.20 out of 12
Air Quality Not available.
Flu Activity Sporadic
METAR KABI 271952Z 18011KT 10SM FEW044 31/21 A3003 RMK AO2 SLP144 T03110206 $

More Conditions Fewer Conditions

Pressure 29.96 in
Visibility 10.0 miles
Clouds Few 4400 ft
Heat Index 95 °F
Dew Point 74 °F
Humidity 65%
Rainfall 0.00 in
Snow Depth Not available.
UV 11 out of 12
Pollen 4.20 out of 12
Air Quality Not available.
Flu Activity Sporadic
METAR KABI 271952Z 18011KT 10SM FEW044 31/21 A3003 RMK AO2 SLP144 T03110206 $

More Conditions Fewer Conditions

Nowcast | as of 1:47 PM CDT on May 27, 2015

Isolated showers and thunderstorms will develop across west central Texas this afternoon. Through 3 PM...most of this development will occur along and east of an Anson...to Coleman... to Brady line. The stronger storms may eventually become severe...with the potential to produce large hail and damaging winds. Expect cloud to ground lightning and locally heavy rainfall with these storms.

×

10-Day Weather Forecast

Almanac

Astronomy

May. 27, 2015 Rise Set
Actual Time
Civil Twilight
Nautical Twilight
Astronomical Twilight
Moon
Length of Visible Light
Length of Day
Tomorrow will be .
, % of the Moon is Illuminated

Today's Extremes

State Highs State Lows

Community

WunderPhotos

Upload Photos

1,824,777 photos uploaded!

WunderBlogs® & News

Nearby

Air Quality

  Air Quality AQ Index Pollutant
Not available.

Snow Depth

Station Depth Elevation

Earthquake Activity

City Distance Mag. Time & Date
Minimum magnitude displayed is 2.5.

Coastal Water Temperatures

Place Temperature

Stations

Nearby Weather Stations

Station Location Temp. Windchill Dew Point Humidity Wind Precip. Elev Updated Type